LRBS Airport Information

Runway Information
Runway 07 Length 10499 ft width 148 ft
Elevation 297 ft Threshold 787 ft Heading 74
Runway 25 Length 10499 ft Width 148 ft
Elevation 292 ft Threshold 2609 ft Heading 254
Airport Frequencies
Type APP Name APP Frequency 118.25 MHZ
Type GCA Name PRECISION Frequency 125.2 MHZ
Type GND Name GND Frequency 129.95 MHZ
Type TWR Name TWR Frequency 120.8 MHZ
Airport Navaids
Type NDB Name Baneasa Southeast Frequency 256 KHZ
Type NDB Name Baneasa Southwest Frequency 521 KHZ
Airport Weather Information & NOTAM
ADDS - METARS form results

(1119 UTC 23 May 2019)
Data provider http://aviationweather.gov/metar/data/
 
METAR text: LRBS 231100Z 28010KT 240V330 9999 SCT041 23/12 Q1011 NOSIG
Conditions at: LRBS (BUCHAREST/BANEAS, RO) observed 1100 UTC 23 May 2019
Temperature: 23.0°C (73°F)
Dewpoint: 12.0°C (54°F) [RH = 50%]
Pressure (altimeter): 29.85 inches Hg (1011.0 mb)
Winds: from the W (280 degrees) at 12 MPH (10 knots; 5.1 m/s)
Visibility: 6 or more miles (10+ km)
Ceiling: at least 12,000 feet AGL
Clouds: scattered clouds at 4100 feet AGL
Weather: no significant weather observed at this time

METAR text: LRBS 231030Z 26013KT 9999 SCT040 22/13 Q1011 NOSIG
Conditions at: LRBS (BUCHAREST/BANEAS, RO) observed 1030 UTC 23 May 2019
Temperature: 22.0°C (72°F)
Dewpoint: 13.0°C (55°F) [RH = 57%]
Pressure (altimeter): 29.85 inches Hg (1011.0 mb)
Winds: from the W (260 degrees) at 15 MPH (13 knots; 6.7 m/s)
Visibility: 6 or more miles (10+ km)
Ceiling: at least 12,000 feet AGL
Clouds: scattered clouds at 4000 feet AGL
Weather: no significant weather observed at this time

Forecast for: LRBS (BUCHAREST/BANEAS, RO)
Text: TAF LRBS 230500Z 2306/2406 26008KT CAVOK
Forecast period: 0600 UTC 23 May 2019 to 0600 UTC 24 May 2019
Forecast type: FROM: standard forecast or significant change
Winds: from the W (260 degrees) at 9 MPH (8 knots; 4.1 m/s)
Visibility: 6 or more miles 10+ km)
Ceiling: unknown
Clouds: missing
Weather: NSW  (no significant weather)